sensor_id;sensor_type;location;lat;lon;timestamp;P1;durP1;ratioP1;P2;durP2;ratioP2
4575;SDS011;2300;51.874;8.430;2022-12-18T00:00:04;74.30;;;63.20;;
4575;SDS011;2300;51.874;8.430;2022-12-18T00:02:32;72.83;;;60.53;;
4575;SDS011;2300;51.874;8.430;2022-12-18T00:04:58;72.53;;;64.83;;
4575;SDS011;2300;51.874;8.430;2022-12-18T00:07:25;73.83;;;61.97;;
4575;SDS011;2300;51.874;8.430;2022-12-18T00:09:51;72.33;;;60.63;;
4575;SDS011;2300;51.874;8.430;2022-12-18T00:12:18;71.27;;;62.57;;
4575;SDS011;2300;51.874;8.430;2022-12-18T00:14:46;79.63;;;63.90;;
4575;SDS011;2300;51.874;8.430;2022-12-18T00:17:12;70.60;;;61.80;;
4575;SDS011;2300;51.874;8.430;2022-12-18T00:19:39;72.77;;;63.40;;
4575;SDS011;2300;51.874;8.430;2022-12-18T00:22:05;69.23;;;59.33;;
4575;SDS011;2300;51.874;8.430;2022-12-18T00:24:32;68.47;;;61.03;;
4575;SDS011;2300;51.874;8.430;2022-12-18T00:26:58;69.83;;;61.10;;
4575;SDS011;2300;51.874;8.430;2022-12-18T00:29:25;73.23;;;60.23;;
4575;SDS011;2300;51.874;8.430;2022-12-18T00:31:53;66.80;;;60.03;;
4575;SDS011;2300;51.874;8.430;2022-12-18T00:34:19;69.27;;;62.07;;
4575;SDS011;2300;51.874;8.430;2022-12-18T00:36:46;69.23;;;61.83;;
4575;SDS011;2300;51.874;8.430;2022-12-18T00:39:13;71.60;;;64.07;;
4575;SDS011;2300;51.874;8.430;2022-12-18T00:41:40;67.87;;;60.53;;
4575;SDS011;2300;51.874;8.430;2022-12-18T00:44:24;66.30;;;59.37;;
4575;SDS011;2300;51.874;8.430;2022-12-18T00:46:50;66.87;;;59.93;;
4575;SDS011;2300;51.874;8.430;2022-12-18T00:49:19;64.70;;;57.87;;
4575;SDS011;2300;51.874;8.430;2022-12-18T00:51:46;64.20;;;57.37;;
4575;SDS011;2300;51.874;8.430;2022-12-18T00:54:13;64.97;;;58.27;;
4575;SDS011;2300;51.874;8.430;2022-12-18T00:56:40;64.77;;;58.07;;
4575;SDS011;2300;51.874;8.430;2022-12-18T00:59:06;60.13;;;53.70;;
4575;SDS011;2300;51.874;8.430;2022-12-18T01:01:33;63.83;;;57.70;;
4575;SDS011;2300;51.874;8.430;2022-12-18T01:04:02;59.93;;;54.33;;
4575;SDS011;2300;51.874;8.430;2022-12-18T01:06:29;60.53;;;55.10;;
4575;SDS011;2300;51.874;8.430;2022-12-18T01:08:56;59.90;;;53.83;;
4575;SDS011;2300;51.874;8.430;2022-12-18T01:11:23;62.30;;;56.37;;
4575;SDS011;2300;51.874;8.430;2022-12-18T01:13:51;59.83;;;53.77;;
4575;SDS011;2300;51.874;8.430;2022-12-18T01:16:18;59.00;;;53.63;;
4575;SDS011;2300;51.874;8.430;2022-12-18T01:18:45;61.87;;;56.03;;
4575;SDS011;2300;51.874;8.430;2022-12-18T01:21:14;64.93;;;59.23;;
4575;SDS011;2300;51.874;8.430;2022-12-18T01:23:42;58.67;;;52.73;;
4575;SDS011;2300;51.874;8.430;2022-12-18T01:26:10;61.23;;;55.37;;
4575;SDS011;2300;51.874;8.430;2022-12-18T01:28:38;59.77;;;54.37;;
4575;SDS011;2300;51.874;8.430;2022-12-18T01:31:12;60.67;;;54.80;;
4575;SDS011;2300;51.874;8.430;2022-12-18T01:33:40;56.87;;;51.90;;
4575;SDS011;2300;51.874;8.430;2022-12-18T01:36:07;62.30;;;56.93;;
4575;SDS011;2300;51.874;8.430;2022-12-18T01:38:35;55.80;;;50.97;;
4575;SDS011;2300;51.874;8.430;2022-12-18T01:41:02;58.63;;;53.50;;
4575;SDS011;2300;51.874;8.430;2022-12-18T01:43:41;53.70;;;49.00;;
4575;SDS011;2300;51.874;8.430;2022-12-18T01:46:12;55.20;;;50.40;;
4575;SDS011;2300;51.874;8.430;2022-12-18T01:48:39;57.17;;;52.13;;
4575;SDS011;2300;51.874;8.430;2022-12-18T01:51:07;53.33;;;48.83;;
4575;SDS011;2300;51.874;8.430;2022-12-18T01:53:37;54.70;;;50.20;;
4575;SDS011;2300;51.874;8.430;2022-12-18T01:56:06;56.97;;;52.33;;
4575;SDS011;2300;51.874;8.430;2022-12-18T01:58:35;53.97;;;49.40;;
4575;SDS011;2300;51.874;8.430;2022-12-18T02:01:07;55.83;;;51.13;;
4575;SDS011;2300;51.874;8.430;2022-12-18T02:03:34;54.27;;;50.10;;
4575;SDS011;2300;51.874;8.430;2022-12-18T02:06:01;56.27;;;51.70;;
4575;SDS011;2300;51.874;8.430;2022-12-18T02:08:35;57.33;;;52.73;;
4575;SDS011;2300;51.874;8.430;2022-12-18T02:11:10;54.13;;;48.80;;
4575;SDS011;2300;51.874;8.430;2022-12-18T02:13:43;52.20;;;48.00;;
4575;SDS011;2300;51.874;8.430;2022-12-18T02:16:21;51.63;;;47.57;;
4575;SDS011;2300;51.874;8.430;2022-12-18T02:18:53;54.10;;;49.03;;
4575;SDS011;2300;51.874;8.430;2022-12-18T02:21:26;54.47;;;50.37;;
4575;SDS011;2300;51.874;8.430;2022-12-18T02:24:03;56.13;;;51.67;;
4575;SDS011;2300;51.874;8.430;2022-12-18T02:26:45;53.70;;;49.50;;
4575;SDS011;2300;51.874;8.430;2022-12-18T02:29:15;49.13;;;45.07;;
4575;SDS011;2300;51.874;8.430;2022-12-18T02:31:45;53.67;;;49.13;;
4575;SDS011;2300;51.874;8.430;2022-12-18T02:34:16;51.73;;;47.90;;
4575;SDS011;2300;51.874;8.430;2022-12-18T02:36:44;53.37;;;49.27;;
4575;SDS011;2300;51.874;8.430;2022-12-18T02:39:14;51.17;;;47.50;;
4575;SDS011;2300;51.874;8.430;2022-12-18T02:41:42;52.63;;;48.27;;
4575;SDS011;2300;51.874;8.430;2022-12-18T02:44:11;49.70;;;46.30;;
4575;SDS011;2300;51.874;8.430;2022-12-18T02:46:39;49.70;;;46.10;;
4575;SDS011;2300;51.874;8.430;2022-12-18T02:49:17;54.33;;;49.93;;
4575;SDS011;2300;51.874;8.430;2022-12-18T02:51:52;47.73;;;44.10;;
4575;SDS011;2300;51.874;8.430;2022-12-18T02:54:28;48.70;;;45.17;;
4575;SDS011;2300;51.874;8.430;2022-12-18T02:57:08;50.20;;;46.53;;
4575;SDS011;2300;51.874;8.430;2022-12-18T02:59:41;49.60;;;45.87;;
4575;SDS011;2300;51.874;8.430;2022-12-18T03:02:19;50.97;;;46.97;;
4575;SDS011;2300;51.874;8.430;2022-12-18T03:04:53;54.40;;;50.30;;
4575;SDS011;2300;51.874;8.430;2022-12-18T03:07:28;50.07;;;46.47;;
4575;SDS011;2300;51.874;8.430;2022-12-18T03:10:03;55.33;;;50.90;;
4575;SDS011;2300;51.874;8.430;2022-12-18T03:12:34;53.43;;;49.73;;
4575;SDS011;2300;51.874;8.430;2022-12-18T03:15:04;54.80;;;50.70;;
4575;SDS011;2300;51.874;8.430;2022-12-18T03:17:36;50.80;;;46.90;;
4575;SDS011;2300;51.874;8.430;2022-12-18T03:20:08;53.13;;;49.37;;
4575;SDS011;2300;51.874;8.430;2022-12-18T03:22:38;54.13;;;50.30;;
4575;SDS011;2300;51.874;8.430;2022-12-18T03:25:09;52.23;;;48.70;;
4575;SDS011;2300;51.874;8.430;2022-12-18T03:27:41;51.93;;;48.33;;
4575;SDS011;2300;51.874;8.430;2022-12-18T03:30:11;54.07;;;50.37;;
4575;SDS011;2300;51.874;8.430;2022-12-18T03:32:41;53.53;;;49.67;;
4575;SDS011;2300;51.874;8.430;2022-12-18T03:35:13;51.10;;;47.70;;
4575;SDS011;2300;51.874;8.430;2022-12-18T03:37:44;48.33;;;45.03;;
4575;SDS011;2300;51.874;8.430;2022-12-18T03:40:11;50.47;;;46.93;;
4575;SDS011;2300;51.874;8.430;2022-12-18T03:42:39;49.77;;;45.97;;
4575;SDS011;2300;51.874;8.430;2022-12-18T03:45:13;45.93;;;42.87;;
4575;SDS011;2300;51.874;8.430;2022-12-18T03:47:50;48.37;;;44.90;;
4575;SDS011;2300;51.874;8.430;2022-12-18T03:50:26;47.93;;;44.63;;
4575;SDS011;2300;51.874;8.430;2022-12-18T03:53:01;48.63;;;45.30;;
4575;SDS011;2300;51.874;8.430;2022-12-18T03:55:34;49.23;;;45.43;;
4575;SDS011;2300;51.874;8.430;2022-12-18T03:58:03;44.97;;;41.87;;
4575;SDS011;2300;51.874;8.430;2022-12-18T04:00:33;47.43;;;44.07;;
4575;SDS011;2300;51.874;8.430;2022-12-18T04:03:00;47.90;;;44.53;;
4575;SDS011;2300;51.874;8.430;2022-12-18T04:05:29;48.37;;;44.97;;
4575;SDS011;2300;51.874;8.430;2022-12-18T04:07:58;50.70;;;47.07;;
4575;SDS011;2300;51.874;8.430;2022-12-18T04:10:25;49.17;;;45.47;;
4575;SDS011;2300;51.874;8.430;2022-12-18T04:12:52;51.97;;;48.37;;
4575;SDS011;2300;51.874;8.430;2022-12-18T04:15:23;52.00;;;48.20;;
4575;SDS011;2300;51.874;8.430;2022-12-18T04:17:49;53.77;;;50.03;;
4575;SDS011;2300;51.874;8.430;2022-12-18T04:20:16;55.07;;;50.80;;
4575;SDS011;2300;51.874;8.430;2022-12-18T04:22:44;48.33;;;44.83;;
4575;SDS011;2300;51.874;8.430;2022-12-18T04:25:10;52.43;;;48.63;;
4575;SDS011;2300;51.874;8.430;2022-12-18T04:27:37;49.97;;;46.50;;
4575;SDS011;2300;51.874;8.430;2022-12-18T04:30:04;47.83;;;44.53;;
4575;SDS011;2300;51.874;8.430;2022-12-18T04:32:34;48.87;;;45.50;;
4575;SDS011;2300;51.874;8.430;2022-12-18T04:35:00;50.23;;;46.73;;
4575;SDS011;2300;51.874;8.430;2022-12-18T04:37:29;49.70;;;46.47;;
4575;SDS011;2300;51.874;8.430;2022-12-18T04:39:55;47.17;;;44.03;;
4575;SDS011;2300;51.874;8.430;2022-12-18T04:42:22;50.03;;;46.37;;
4575;SDS011;2300;51.874;8.430;2022-12-18T04:44:48;47.57;;;44.27;;
4575;SDS011;2300;51.874;8.430;2022-12-18T04:47:15;49.53;;;46.10;;
4575;SDS011;2300;51.874;8.430;2022-12-18T04:49:43;47.13;;;44.03;;
4575;SDS011;2300;51.874;8.430;2022-12-18T04:52:09;51.63;;;47.97;;
4575;SDS011;2300;51.874;8.430;2022-12-18T04:54:36;49.20;;;45.77;;
4575;SDS011;2300;51.874;8.430;2022-12-18T04:57:02;49.07;;;45.83;;
4575;SDS011;2300;51.874;8.430;2022-12-18T04:59:29;49.27;;;45.77;;
4575;SDS011;2300;51.874;8.430;2022-12-18T05:01:55;47.90;;;44.63;;
4575;SDS011;2300;51.874;8.430;2022-12-18T05:04:22;51.93;;;48.07;;
4575;SDS011;2300;51.874;8.430;2022-12-18T05:06:50;49.20;;;45.60;;
4575;SDS011;2300;51.874;8.430;2022-12-18T05:09:16;48.73;;;44.90;;
4575;SDS011;2300;51.874;8.430;2022-12-18T05:11:43;50.57;;;47.13;;
4575;SDS011;2300;51.874;8.430;2022-12-18T05:14:09;49.60;;;46.00;;
4575;SDS011;2300;51.874;8.430;2022-12-18T05:16:36;51.87;;;48.30;;
4575;SDS011;2300;51.874;8.430;2022-12-18T05:19:03;54.93;;;51.13;;
4575;SDS011;2300;51.874;8.430;2022-12-18T05:21:29;54.27;;;50.67;;
4575;SDS011;2300;51.874;8.430;2022-12-18T05:23:57;56.60;;;52.37;;
4575;SDS011;2300;51.874;8.430;2022-12-18T05:26:23;51.23;;;47.80;;
4575;SDS011;2300;51.874;8.430;2022-12-18T05:28:50;56.57;;;52.87;;
4575;SDS011;2300;51.874;8.430;2022-12-18T05:31:17;55.17;;;50.83;;
4575;SDS011;2300;51.874;8.430;2022-12-18T05:33:43;56.17;;;51.53;;
4575;SDS011;2300;51.874;8.430;2022-12-18T05:36:10;59.00;;;55.00;;
4575;SDS011;2300;51.874;8.430;2022-12-18T05:38:37;55.33;;;51.53;;
4575;SDS011;2300;51.874;8.430;2022-12-18T05:41:06;60.87;;;56.90;;
4575;SDS011;2300;51.874;8.430;2022-12-18T05:43:34;60.07;;;56.07;;
4575;SDS011;2300;51.874;8.430;2022-12-18T05:46:05;60.70;;;56.60;;
4575;SDS011;2300;51.874;8.430;2022-12-18T05:48:33;58.20;;;54.40;;
4575;SDS011;2300;51.874;8.430;2022-12-18T05:51:03;61.73;;;57.17;;
4575;SDS011;2300;51.874;8.430;2022-12-18T05:53:31;60.07;;;56.00;;
4575;SDS011;2300;51.874;8.430;2022-12-18T05:55:59;61.60;;;57.40;;
4575;SDS011;2300;51.874;8.430;2022-12-18T05:58:28;61.13;;;57.07;;
4575;SDS011;2300;51.874;8.430;2022-12-18T06:00:55;64.07;;;59.67;;
4575;SDS011;2300;51.874;8.430;2022-12-18T06:03:22;62.77;;;58.63;;
4575;SDS011;2300;51.874;8.430;2022-12-18T06:05:48;63.07;;;58.67;;
4575;SDS011;2300;51.874;8.430;2022-12-18T06:08:15;62.33;;;58.23;;
4575;SDS011;2300;51.874;8.430;2022-12-18T06:10:41;60.13;;;55.60;;
4575;SDS011;2300;51.874;8.430;2022-12-18T06:13:08;59.73;;;55.50;;
4575;SDS011;2300;51.874;8.430;2022-12-18T06:15:37;64.17;;;59.67;;
4575;SDS011;2300;51.874;8.430;2022-12-18T06:18:03;65.83;;;61.60;;
4575;SDS011;2300;51.874;8.430;2022-12-18T06:20:30;61.33;;;56.90;;
4575;SDS011;2300;51.874;8.430;2022-12-18T06:22:57;63.60;;;59.30;;
4575;SDS011;2300;51.874;8.430;2022-12-18T06:25:23;62.93;;;58.63;;
4575;SDS011;2300;51.874;8.430;2022-12-18T06:27:50;62.13;;;57.50;;
4575;SDS011;2300;51.874;8.430;2022-12-18T06:30:16;57.73;;;53.63;;
4575;SDS011;2300;51.874;8.430;2022-12-18T06:32:44;60.27;;;55.40;;
4575;SDS011;2300;51.874;8.430;2022-12-18T06:35:11;60.23;;;55.37;;
4575;SDS011;2300;51.874;8.430;2022-12-18T06:37:37;56.33;;;52.10;;
4575;SDS011;2300;51.874;8.430;2022-12-18T06:40:04;57.23;;;52.90;;
4575;SDS011;2300;51.874;8.430;2022-12-18T06:42:32;57.10;;;52.80;;
4575;SDS011;2300;51.874;8.430;2022-12-18T06:44:58;59.00;;;54.77;;
4575;SDS011;2300;51.874;8.430;2022-12-18T06:47:25;59.43;;;54.60;;
4575;SDS011;2300;51.874;8.430;2022-12-18T06:49:53;64.30;;;59.27;;
4575;SDS011;2300;51.874;8.430;2022-12-18T06:52:19;60.83;;;56.40;;
4575;SDS011;2300;51.874;8.430;2022-12-18T06:54:46;58.40;;;53.87;;
4575;SDS011;2300;51.874;8.430;2022-12-18T06:57:12;58.90;;;54.50;;
4575;SDS011;2300;51.874;8.430;2022-12-18T06:59:39;60.60;;;55.77;;
4575;SDS011;2300;51.874;8.430;2022-12-18T07:02:06;59.73;;;55.33;;
4575;SDS011;2300;51.874;8.430;2022-12-18T07:04:32;62.97;;;57.87;;
4575;SDS011;2300;51.874;8.430;2022-12-18T07:07:00;61.10;;;56.70;;
4575;SDS011;2300;51.874;8.430;2022-12-18T07:09:26;57.70;;;53.13;;
4575;SDS011;2300;51.874;8.430;2022-12-18T07:11:54;60.73;;;56.00;;
4575;SDS011;2300;51.874;8.430;2022-12-18T07:14:21;61.43;;;56.53;;
4575;SDS011;2300;51.874;8.430;2022-12-18T07:16:48;59.73;;;55.27;;
4575;SDS011;2300;51.874;8.430;2022-12-18T07:19:14;62.43;;;57.20;;
4575;SDS011;2300;51.874;8.430;2022-12-18T07:21:41;60.30;;;55.40;;
4575;SDS011;2300;51.874;8.430;2022-12-18T07:24:09;60.07;;;55.10;;
4575;SDS011;2300;51.874;8.430;2022-12-18T07:26:35;58.43;;;53.57;;
4575;SDS011;2300;51.874;8.430;2022-12-18T07:29:02;59.17;;;54.37;;
4575;SDS011;2300;51.874;8.430;2022-12-18T07:31:28;58.50;;;53.47;;
4575;SDS011;2300;51.874;8.430;2022-12-18T07:33:55;58.37;;;53.70;;
4575;SDS011;2300;51.874;8.430;2022-12-18T07:36:21;59.37;;;54.47;;
4575;SDS011;2300;51.874;8.430;2022-12-18T07:38:48;56.57;;;51.77;;
4575;SDS011;2300;51.874;8.430;2022-12-18T07:41:18;58.33;;;53.73;;
4575;SDS011;2300;51.874;8.430;2022-12-18T07:43:45;59.63;;;54.37;;
4575;SDS011;2300;51.874;8.430;2022-12-18T07:46:12;56.63;;;51.87;;
4575;SDS011;2300;51.874;8.430;2022-12-18T07:48:40;61.27;;;56.33;;
4575;SDS011;2300;51.874;8.430;2022-12-18T07:51:07;59.00;;;54.00;;
4575;SDS011;2300;51.874;8.430;2022-12-18T07:53:35;59.17;;;53.83;;
4575;SDS011;2300;51.874;8.430;2022-12-18T07:56:02;57.93;;;53.03;;
4575;SDS011;2300;51.874;8.430;2022-12-18T07:58:32;58.03;;;53.23;;
4575;SDS011;2300;51.874;8.430;2022-12-18T08:01:03;55.17;;;50.57;;
4575;SDS011;2300;51.874;8.430;2022-12-18T08:03:30;72.63;;;65.43;;
4575;SDS011;2300;51.874;8.430;2022-12-18T08:05:58;55.70;;;51.10;;
4575;SDS011;2300;51.874;8.430;2022-12-18T08:08:25;59.67;;;54.53;;
4575;SDS011;2300;51.874;8.430;2022-12-18T08:10:52;55.40;;;51.10;;
4575;SDS011;2300;51.874;8.430;2022-12-18T08:13:18;54.27;;;49.80;;
4575;SDS011;2300;51.874;8.430;2022-12-18T08:15:46;53.13;;;49.03;;
4575;SDS011;2300;51.874;8.430;2022-12-18T08:18:13;55.80;;;51.13;;
4575;SDS011;2300;51.874;8.430;2022-12-18T08:20:39;55.20;;;50.83;;
4575;SDS011;2300;51.874;8.430;2022-12-18T08:23:05;53.50;;;49.23;;
4575;SDS011;2300;51.874;8.430;2022-12-18T08:25:32;56.67;;;51.97;;
4575;SDS011;2300;51.874;8.430;2022-12-18T08:28:00;55.80;;;51.03;;
4575;SDS011;2300;51.874;8.430;2022-12-18T08:30:26;57.23;;;52.53;;
4575;SDS011;2300;51.874;8.430;2022-12-18T08:32:54;57.70;;;53.10;;
4575;SDS011;2300;51.874;8.430;2022-12-18T08:35:20;55.03;;;50.47;;
4575;SDS011;2300;51.874;8.430;2022-12-18T08:37:47;56.53;;;52.10;;
4575;SDS011;2300;51.874;8.430;2022-12-18T08:40:14;56.23;;;51.83;;
4575;SDS011;2300;51.874;8.430;2022-12-18T08:42:40;54.70;;;50.37;;
4575;SDS011;2300;51.874;8.430;2022-12-18T08:45:24;54.80;;;50.37;;
4575;SDS011;2300;51.874;8.430;2022-12-18T08:47:51;54.73;;;50.70;;
4575;SDS011;2300;51.874;8.430;2022-12-18T08:50:19;55.67;;;51.33;;
4575;SDS011;2300;51.874;8.430;2022-12-18T08:52:46;55.80;;;51.20;;
4575;SDS011;2300;51.874;8.430;2022-12-18T08:55:12;55.10;;;50.70;;
4575;SDS011;2300;51.874;8.430;2022-12-18T08:57:39;57.20;;;52.90;;
4575;SDS011;2300;51.874;8.430;2022-12-18T09:00:06;55.10;;;50.83;;
4575;SDS011;2300;51.874;8.430;2022-12-18T09:02:33;55.43;;;51.17;;
4575;SDS011;2300;51.874;8.430;2022-12-18T09:05:00;54.67;;;50.33;;
4575;SDS011;2300;51.874;8.430;2022-12-18T09:07:27;54.07;;;49.90;;
4575;SDS011;2300;51.874;8.430;2022-12-18T09:09:54;58.37;;;53.77;;
4575;SDS011;2300;51.874;8.430;2022-12-18T09:12:20;56.27;;;51.97;;
4575;SDS011;2300;51.874;8.430;2022-12-18T09:14:47;56.73;;;52.37;;
4575;SDS011;2300;51.874;8.430;2022-12-18T09:17:14;59.43;;;54.73;;
4575;SDS011;2300;51.874;8.430;2022-12-18T09:19:40;59.40;;;54.67;;
4575;SDS011;2300;51.874;8.430;2022-12-18T09:22:07;60.50;;;55.80;;
4575;SDS011;2300;51.874;8.430;2022-12-18T09:24:35;61.20;;;56.27;;
4575;SDS011;2300;51.874;8.430;2022-12-18T09:27:02;60.20;;;55.53;;
4575;SDS011;2300;51.874;8.430;2022-12-18T09:29:28;61.07;;;56.47;;
4575;SDS011;2300;51.874;8.430;2022-12-18T09:31:55;61.07;;;56.73;;
4575;SDS011;2300;51.874;8.430;2022-12-18T09:34:22;62.07;;;57.40;;
4575;SDS011;2300;51.874;8.430;2022-12-18T09:36:48;59.43;;;55.03;;
4575;SDS011;2300;51.874;8.430;2022-12-18T09:39:15;60.30;;;55.70;;
4575;SDS011;2300;51.874;8.430;2022-12-18T09:41:44;61.40;;;56.43;;
4575;SDS011;2300;51.874;8.430;2022-12-18T09:44:19;59.83;;;55.57;;
4575;SDS011;2300;51.874;8.430;2022-12-18T09:46:50;59.73;;;54.80;;
4575;SDS011;2300;51.874;8.430;2022-12-18T09:49:22;58.43;;;53.93;;
4575;SDS011;2300;51.874;8.430;2022-12-18T09:51:52;55.57;;;51.37;;
4575;SDS011;2300;51.874;8.430;2022-12-18T09:54:23;57.97;;;53.57;;
4575;SDS011;2300;51.874;8.430;2022-12-18T09:56:53;57.30;;;52.80;;
4575;SDS011;2300;51.874;8.430;2022-12-18T09:59:22;60.73;;;56.03;;
4575;SDS011;2300;51.874;8.430;2022-12-18T10:01:51;56.60;;;52.47;;
4575;SDS011;2300;51.874;8.430;2022-12-18T10:04:17;55.13;;;51.17;;
4575;SDS011;2300;51.874;8.430;2022-12-18T10:06:45;55.97;;;51.60;;
4575;SDS011;2300;51.874;8.430;2022-12-18T10:09:21;54.93;;;50.97;;
4575;SDS011;2300;51.874;8.430;2022-12-18T10:11:59;53.70;;;50.00;;
4575;SDS011;2300;51.874;8.430;2022-12-18T10:14:34;56.00;;;51.93;;
4575;SDS011;2300;51.874;8.430;2022-12-18T10:17:09;54.80;;;51.03;;
4575;SDS011;2300;51.874;8.430;2022-12-18T10:19:42;56.67;;;52.63;;
4575;SDS011;2300;51.874;8.430;2022-12-18T10:22:18;56.10;;;52.30;;
4575;SDS011;2300;51.874;8.430;2022-12-18T10:24:53;57.90;;;53.83;;
4575;SDS011;2300;51.874;8.430;2022-12-18T10:27:26;58.77;;;54.67;;
4575;SDS011;2300;51.874;8.430;2022-12-18T10:29:53;66.47;;;61.93;;
4575;SDS011;2300;51.874;8.430;2022-12-18T10:32:20;56.57;;;52.47;;
4575;SDS011;2300;51.874;8.430;2022-12-18T10:34:49;57.53;;;53.43;;
4575;SDS011;2300;51.874;8.430;2022-12-18T10:37:17;61.90;;;57.77;;
4575;SDS011;2300;51.874;8.430;2022-12-18T10:39:45;60.70;;;56.50;;
4575;SDS011;2300;51.874;8.430;2022-12-18T10:42:16;64.57;;;60.27;;
4575;SDS011;2300;51.874;8.430;2022-12-18T10:44:46;58.83;;;54.83;;
4575;SDS011;2300;51.874;8.430;2022-12-18T10:47:27;60.20;;;56.27;;
4575;SDS011;2300;51.874;8.430;2022-12-18T10:49:54;58.00;;;54.03;;
4575;SDS011;2300;51.874;8.430;2022-12-18T10:52:21;59.03;;;54.97;;
4575;SDS011;2300;51.874;8.430;2022-12-18T10:54:51;84.40;;;78.40;;
4575;SDS011;2300;51.874;8.430;2022-12-18T10:57:29;57.23;;;53.40;;
4575;SDS011;2300;51.874;8.430;2022-12-18T11:00:03;57.80;;;53.90;;
4575;SDS011;2300;51.874;8.430;2022-12-18T11:02:47;56.03;;;52.20;;
4575;SDS011;2300;51.874;8.430;2022-12-18T11:05:24;63.27;;;59.10;;
4575;SDS011;2300;51.874;8.430;2022-12-18T11:07:53;57.77;;;54.10;;
4575;SDS011;2300;51.874;8.430;2022-12-18T11:10:20;57.73;;;54.03;;
4575;SDS011;2300;51.874;8.430;2022-12-18T11:12:48;57.43;;;53.70;;
4575;SDS011;2300;51.874;8.430;2022-12-18T11:15:16;58.07;;;54.37;;
4575;SDS011;2300;51.874;8.430;2022-12-18T11:17:46;58.37;;;54.80;;
4575;SDS011;2300;51.874;8.430;2022-12-18T11:20:23;58.27;;;54.57;;
4575;SDS011;2300;51.874;8.430;2022-12-18T11:22:58;59.53;;;55.73;;
4575;SDS011;2300;51.874;8.430;2022-12-18T11:25:27;58.23;;;54.50;;
4575;SDS011;2300;51.874;8.430;2022-12-18T11:27:55;56.60;;;52.83;;
4575;SDS011;2300;51.874;8.430;2022-12-18T11:30:25;58.00;;;54.40;;
4575;SDS011;2300;51.874;8.430;2022-12-18T11:32:55;59.23;;;55.73;;
4575;SDS011;2300;51.874;8.430;2022-12-18T11:35:35;62.03;;;58.17;;
4575;SDS011;2300;51.874;8.430;2022-12-18T11:38:09;58.03;;;54.33;;
4575;SDS011;2300;51.874;8.430;2022-12-18T11:40:42;58.00;;;54.37;;
4575;SDS011;2300;51.874;8.430;2022-12-18T11:43:13;57.60;;;54.13;;
4575;SDS011;2300;51.874;8.430;2022-12-18T11:45:45;58.63;;;55.13;;
4575;SDS011;2300;51.874;8.430;2022-12-18T11:48:21;57.63;;;54.23;;
4575;SDS011;2300;51.874;8.430;2022-12-18T11:50:51;56.90;;;53.60;;
4575;SDS011;2300;51.874;8.430;2022-12-18T11:53:19;73.90;;;69.73;;
4575;SDS011;2300;51.874;8.430;2022-12-18T11:55:51;79.90;;;75.60;;
4575;SDS011;2300;51.874;8.430;2022-12-18T11:58:32;61.60;;;58.20;;
4575;SDS011;2300;51.874;8.430;2022-12-18T12:01:11;64.43;;;60.97;;
4575;SDS011;2300;51.874;8.430;2022-12-18T12:03:49;90.50;;;85.67;;
4575;SDS011;2300;51.874;8.430;2022-12-18T12:06:28;74.63;;;70.77;;
4575;SDS011;2300;51.874;8.430;2022-12-18T12:09:02;70.70;;;66.77;;
4575;SDS011;2300;51.874;8.430;2022-12-18T12:11:40;67.73;;;64.03;;
4575;SDS011;2300;51.874;8.430;2022-12-18T12:14:24;74.37;;;70.40;;
4575;SDS011;2300;51.874;8.430;2022-12-18T12:17:01;77.67;;;73.50;;
4575;SDS011;2300;51.874;8.430;2022-12-18T12:19:39;79.77;;;75.60;;
4575;SDS011;2300;51.874;8.430;2022-12-18T12:22:15;78.73;;;74.37;;
4575;SDS011;2300;51.874;8.430;2022-12-18T12:24:53;69.43;;;65.63;;
4575;SDS011;2300;51.874;8.430;2022-12-18T12:27:33;53.43;;;50.27;;
4575;SDS011;2300;51.874;8.430;2022-12-18T12:30:06;64.53;;;60.83;;
4575;SDS011;2300;51.874;8.430;2022-12-18T12:32:43;60.13;;;56.93;;
4575;SDS011;2300;51.874;8.430;2022-12-18T12:35:25;52.57;;;49.47;;
4575;SDS011;2300;51.874;8.430;2022-12-18T12:38:04;59.03;;;55.57;;
4575;SDS011;2300;51.874;8.430;2022-12-18T12:40:34;51.47;;;48.67;;
4575;SDS011;2300;51.874;8.430;2022-12-18T12:43:10;52.27;;;49.43;;
4575;SDS011;2300;51.874;8.430;2022-12-18T12:45:46;54.93;;;52.03;;
4575;SDS011;2300;51.874;8.430;2022-12-18T12:48:20;52.47;;;49.57;;
4575;SDS011;2300;51.874;8.430;2022-12-18T12:50:57;56.50;;;53.40;;
4575;SDS011;2300;51.874;8.430;2022-12-18T12:53:27;55.57;;;52.47;;
4575;SDS011;2300;51.874;8.430;2022-12-18T12:55:59;61.73;;;58.40;;
4575;SDS011;2300;51.874;8.430;2022-12-18T12:58:28;56.60;;;53.43;;
4575;SDS011;2300;51.874;8.430;2022-12-18T13:01:08;54.53;;;51.57;;
4575;SDS011;2300;51.874;8.430;2022-12-18T13:03:43;55.20;;;51.90;;
4575;SDS011;2300;51.874;8.430;2022-12-18T13:06:19;57.33;;;54.03;;
4575;SDS011;2300;51.874;8.430;2022-12-18T13:08:56;57.13;;;53.93;;
4575;SDS011;2300;51.874;8.430;2022-12-18T13:11:31;56.37;;;53.03;;
4575;SDS011;2300;51.874;8.430;2022-12-18T13:14:20;58.13;;;54.60;;
4575;SDS011;2300;51.874;8.430;2022-12-18T13:16:48;57.77;;;54.57;;
4575;SDS011;2300;51.874;8.430;2022-12-18T13:19:22;56.97;;;53.70;;
4575;SDS011;2300;51.874;8.430;2022-12-18T13:21:52;62.30;;;58.87;;
4575;SDS011;2300;51.874;8.430;2022-12-18T13:24:22;58.33;;;55.07;;
4575;SDS011;2300;51.874;8.430;2022-12-18T13:26:52;66.87;;;63.37;;
4575;SDS011;2300;51.874;8.430;2022-12-18T13:32:20;55.77;;;52.57;;
4575;SDS011;2300;51.874;8.430;2022-12-18T13:38:18;59.33;;;55.47;;
4575;SDS011;2300;51.874;8.430;2022-12-18T13:43:26;69.40;;;65.67;;
4575;SDS011;2300;51.874;8.430;2022-12-18T13:45:59;61.57;;;58.17;;
4575;SDS011;2300;51.874;8.430;2022-12-18T13:48:29;65.07;;;61.47;;
4575;SDS011;2300;51.874;8.430;2022-12-18T13:50:59;60.27;;;56.87;;
4575;SDS011;2300;51.874;8.430;2022-12-18T13:53:33;69.10;;;65.47;;
4575;SDS011;2300;51.874;8.430;2022-12-18T13:56:03;70.40;;;66.80;;
4575;SDS011;2300;51.874;8.430;2022-12-18T13:58:31;85.77;;;81.50;;
4575;SDS011;2300;51.874;8.430;2022-12-18T14:00:58;65.83;;;62.37;;
4575;SDS011;2300;51.874;8.430;2022-12-18T14:03:27;85.07;;;80.67;;
4575;SDS011;2300;51.874;8.430;2022-12-18T14:05:56;89.93;;;85.33;;
4575;SDS011;2300;51.874;8.430;2022-12-18T14:08:27;92.20;;;87.73;;
4575;SDS011;2300;51.874;8.430;2022-12-18T14:10:59;78.87;;;74.97;;
4575;SDS011;2300;51.874;8.430;2022-12-18T14:13:28;110.40;;;104.67;;
4575;SDS011;2300;51.874;8.430;2022-12-18T14:15:56;90.07;;;85.70;;
4575;SDS011;2300;51.874;8.430;2022-12-18T14:18:26;94.23;;;89.37;;
4575;SDS011;2300;51.874;8.430;2022-12-18T14:20:58;88.83;;;84.50;;
4575;SDS011;2300;51.874;8.430;2022-12-18T14:23:32;91.23;;;86.63;;
4575;SDS011;2300;51.874;8.430;2022-12-18T14:26:03;91.03;;;86.47;;
4575;SDS011;2300;51.874;8.430;2022-12-18T14:28:45;101.13;;;96.10;;
4575;SDS011;2300;51.874;8.430;2022-12-18T14:31:16;94.53;;;89.93;;
4575;SDS011;2300;51.874;8.430;2022-12-18T14:33:44;94.80;;;90.17;;
4575;SDS011;2300;51.874;8.430;2022-12-18T14:36:13;93.07;;;88.50;;
4575;SDS011;2300;51.874;8.430;2022-12-18T14:38:47;84.93;;;80.70;;
4575;SDS011;2300;51.874;8.430;2022-12-18T14:41:15;90.60;;;86.20;;
4575;SDS011;2300;51.874;8.430;2022-12-18T14:43:44;95.40;;;90.67;;
4575;SDS011;2300;51.874;8.430;2022-12-18T14:46:25;98.07;;;93.27;;
4575;SDS011;2300;51.874;8.430;2022-12-18T14:48:55;93.27;;;88.53;;
4575;SDS011;2300;51.874;8.430;2022-12-18T14:51:22;94.13;;;89.37;;
4575;SDS011;2300;51.874;8.430;2022-12-18T14:53:54;83.63;;;79.30;;
4575;SDS011;2300;51.874;8.430;2022-12-18T14:56:24;97.17;;;91.97;;
4575;SDS011;2300;51.874;8.430;2022-12-18T14:58:53;88.63;;;84.20;;
4575;SDS011;2300;51.874;8.430;2022-12-18T15:01:22;93.97;;;89.07;;
4575;SDS011;2300;51.874;8.430;2022-12-18T15:03:52;89.53;;;84.80;;
4575;SDS011;2300;51.874;8.430;2022-12-18T15:06:27;88.13;;;83.70;;
4575;SDS011;2300;51.874;8.430;2022-12-18T15:08:58;92.37;;;87.57;;
4575;SDS011;2300;51.874;8.430;2022-12-18T15:11:32;80.57;;;76.27;;